EJA221 KBNA-KPWK
Flight info
| Callsign | EJA221 |
|---|---|
| Flight time | 1h 22m |
| Altitude | 43000 |
| Route | GDOGG4 FAPER CHZHD GOPAC3 |
| Aircraft | C25C/M-SDE2E3FGHRWXY/LB1 |
Departure
| Time | 2026-04-22 20:44 |
|---|---|
| Airport | Nashville International Airport (KBNA) |
Arrival
| Time | 2026-04-22 22:06 |
|---|---|
| Airport | Chicago Executive Airport (KPWK) |
| Time | Latitude | Longitude | Altitude | Speed | Heading |
|---|---|---|---|---|---|
| 2026-04-22 20:32 | 36.12066 | -86.67177 | 558 ft | 0 kts | 174° |
| 2026-04-22 20:39 | 36.12050 | -86.67204 | 560 ft | 9 kts | 290° |
| 2026-04-22 20:39 | 36.12080 | -86.67310 | 560 ft | 13 kts | 291° |
| 2026-04-22 20:39 | 36.12109 | -86.67358 | 565 ft | 9 kts | 320° |
| 2026-04-22 20:40 | 36.12161 | -86.67399 | 570 ft | 5 kts | 2° |
| 2026-04-22 20:40 | 36.12213 | -86.67398 | 565 ft | 8 kts | 1° |
| 2026-04-22 20:40 | 36.12275 | -86.67409 | 568 ft | 11 kts | 322° |
| 2026-04-22 20:40 | 36.12331 | -86.67484 | 566 ft | 13 kts | 302° |
| 2026-04-22 20:41 | 36.12295 | -86.67580 | 567 ft | 14 kts | 235° |
| 2026-04-22 20:41 | 36.12318 | -86.67676 | 565 ft | 13 kts | 311° |
| 2026-04-22 20:41 | 36.12365 | -86.67786 | 565 ft | 16 kts | 288° |
| 2026-04-22 20:41 | 36.12381 | -86.67848 | 562 ft | 0 kts | 286° |
| 2026-04-22 20:43 | 36.12381 | -86.67849 | 562 ft | 0 kts | 286° |
| 2026-04-22 20:43 | 36.12393 | -86.67894 | 561 ft | 9 kts | 288° |
| 2026-04-22 20:43 | 36.12390 | -86.67967 | 559 ft | 9 kts | 234° |
| 2026-04-22 20:43 | 36.12323 | -86.68004 | 556 ft | 17 kts | 199° |
| 2026-04-22 20:44 | 36.12200 | -86.68055 | 559 ft | 38 kts | 198° |
| 2026-04-22 20:44 | 36.11629 | -86.68308 | 673 ft | 125 kts | 197° |
| 2026-04-22 20:44 | 36.10710 | -86.68670 | 1300 ft | 156 kts | 204° |
| 2026-04-22 20:44 | 36.09726 | -86.69410 | 2184 ft | 168 kts | 222° |
| 2026-04-22 20:45 | 36.08911 | -86.70461 | 2991 ft | 180 kts | 230° |
| 2026-04-22 20:45 | 36.08124 | -86.71741 | 3695 ft | 189 kts | 238° |
| 2026-04-22 20:45 | 36.07539 | -86.73252 | 4371 ft | 201 kts | 248° |
| 2026-04-22 20:45 | 36.07030 | -86.74901 | 4874 ft | 215 kts | 251° |
| 2026-04-22 20:46 | 36.06903 | -86.79196 | 5001 ft | 270 kts | 286° |
| 2026-04-22 20:46 | 36.07420 | -86.81367 | 5002 ft | 264 kts | 282° |
| 2026-04-22 20:46 | 36.07728 | -86.82840 | 4988 ft | 261 kts | 283° |
| 2026-04-22 20:47 | 36.08474 | -86.84853 | 4978 ft | 263 kts | 307° |
| 2026-04-22 20:47 | 36.09852 | -86.86355 | 4972 ft | 264 kts | 325° |
| 2026-04-22 20:47 | 36.11595 | -86.86974 | 5282 ft | 255 kts | 351° |
| 2026-04-22 20:47 | 36.13117 | -86.86927 | 5707 ft | 276 kts | 10° |
| 2026-04-22 20:48 | 36.15265 | -86.86240 | 6359 ft | 268 kts | 9° |
| 2026-04-22 20:48 | 36.17108 | -86.85765 | 6895 ft | 275 kts | 11° |
| 2026-04-22 20:48 | 36.18994 | -86.85180 | 7429 ft | 281 kts | 11° |
| 2026-04-22 20:48 | 36.20914 | -86.84635 | 7980 ft | 285 kts | 11° |
| 2026-04-22 20:49 | 36.22866 | -86.84070 | 8525 ft | 289 kts | 11° |
| 2026-04-22 20:49 | 36.24836 | -86.83485 | 9109 ft | 294 kts | 12° |
| 2026-04-22 20:49 | 36.26859 | -86.82892 | 9740 ft | 304 kts | 11° |
| 2026-04-22 20:49 | 36.28996 | -86.82279 | 9978 ft | 313 kts | 11° |
| 2026-04-22 20:50 | 36.31069 | -86.81684 | 9982 ft | 304 kts | 12° |
| 2026-04-22 20:50 | 36.33100 | -86.81073 | 9981 ft | 297 kts | 11° |
| 2026-04-22 20:50 | 36.35120 | -86.80494 | 9976 ft | 291 kts | 12° |
| 2026-04-22 20:50 | 36.37051 | -86.79924 | 9979 ft | 287 kts | 11° |
| 2026-04-22 20:51 | 36.38981 | -86.79368 | 9981 ft | 283 kts | 12° |
| 2026-04-22 20:51 | 36.40888 | -86.78809 | 9980 ft | 280 kts | 11° |
| 2026-04-22 20:51 | 36.42780 | -86.78257 | 9979 ft | 278 kts | 12° |
| 2026-04-22 20:51 | 36.44658 | -86.77699 | 9978 ft | 276 kts | 11° |
| 2026-04-22 20:52 | 36.46546 | -86.77150 | 9981 ft | 274 kts | 11° |
| 2026-04-22 20:52 | 36.48403 | -86.76610 | 9983 ft | 274 kts | 11° |
| 2026-04-22 20:52 | 36.50260 | -86.76064 | 9981 ft | 275 kts | 11° |
| 2026-04-22 20:52 | 36.52142 | -86.75507 | 9981 ft | 280 kts | 11° |
| 2026-04-22 20:53 | 36.54035 | -86.74964 | 9986 ft | 283 kts | 11° |
| 2026-04-22 20:53 | 36.55976 | -86.74390 | 9988 ft | 287 kts | 11° |
| 2026-04-22 20:53 | 36.57927 | -86.73816 | 9990 ft | 289 kts | 11° |
| 2026-04-22 20:53 | 36.59901 | -86.73447 | 10096 ft | 282 kts | 355° |
| 2026-04-22 20:54 | 36.61877 | -86.73595 | 10626 ft | 290 kts | 355° |
| 2026-04-22 20:54 | 36.63954 | -86.73641 | 11164 ft | 312 kts | 355° |
| 2026-04-22 20:54 | 36.66161 | -86.73752 | 11717 ft | 329 kts | 355° |
| 2026-04-22 20:54 | 36.68533 | -86.73855 | 12297 ft | 345 kts | 355° |
| 2026-04-22 20:55 | 36.70942 | -86.73954 | 12874 ft | 357 kts | 356° |
| 2026-04-22 20:55 | 36.73493 | -86.74064 | 13472 ft | 366 kts | 356° |
| 2026-04-22 20:55 | 36.75979 | -86.74176 | 13651 ft | 348 kts | 355° |
| 2026-04-22 20:55 | 36.78421 | -86.74445 | 13910 ft | 351 kts | 354° |
| 2026-04-22 20:56 | 36.80822 | -86.74579 | 14764 ft | 350 kts | 356° |
| 2026-04-22 20:56 | 36.83262 | -86.74751 | 15264 ft | 353 kts | 354° |
| 2026-04-22 20:56 | 36.85759 | -86.74973 | 15888 ft | 357 kts | 354° |
| 2026-04-22 20:56 | 36.88208 | -86.75181 | 16652 ft | 358 kts | 355° |
| 2026-04-22 20:57 | 36.90720 | -86.75390 | 17301 ft | 363 kts | 355° |
| 2026-04-22 20:57 | 36.93247 | -86.75588 | 17995 ft | 366 kts | 355° |
| 2026-04-22 20:57 | 36.95816 | -86.75800 | 18608 ft | 370 kts | 355° |
| 2026-04-22 20:57 | 36.98383 | -86.76015 | 19182 ft | 374 kts | 355° |
| 2026-04-22 20:58 | 37.00993 | -86.76231 | 19790 ft | 376 kts | 355° |
| 2026-04-22 20:58 | 37.03619 | -86.76445 | 20341 ft | 381 kts | 355° |
| 2026-04-22 20:58 | 37.06310 | -86.76664 | 20970 ft | 383 kts | 355° |
| 2026-04-22 20:58 | 37.08985 | -86.76886 | 21498 ft | 388 kts | 355° |
| 2026-04-22 20:59 | 37.11690 | -86.77109 | 22044 ft | 391 kts | 354° |
| 2026-04-22 20:59 | 37.14415 | -86.77335 | 22581 ft | 394 kts | 354° |
| 2026-04-22 20:59 | 37.17160 | -86.77562 | 23085 ft | 397 kts | 354° |
| 2026-04-22 20:59 | 37.19933 | -86.77790 | 23574 ft | 401 kts | 354° |
| 2026-04-22 21:00 | 37.22723 | -86.78023 | 23981 ft | 404 kts | 354° |
| 2026-04-22 21:00 | 37.25495 | -86.78249 | 24408 ft | 405 kts | 354° |
| 2026-04-22 21:00 | 37.28355 | -86.78489 | 24825 ft | 407 kts | 354° |
| 2026-04-22 21:00 | 37.31194 | -86.78720 | 25228 ft | 409 kts | 354° |
| 2026-04-22 21:01 | 37.33983 | -86.79102 | 25605 ft | 410 kts | 348° |
| 2026-04-22 21:01 | 37.36774 | -86.79948 | 25981 ft | 411 kts | 342° |
| 2026-04-22 21:01 | 37.39458 | -86.81201 | 26326 ft | 412 kts | 338° |
| 2026-04-22 21:01 | 37.42159 | -86.82458 | 26687 ft | 414 kts | 339° |
| 2026-04-22 21:02 | 37.44863 | -86.83718 | 26981 ft | 416 kts | 338° |
| 2026-04-22 21:02 | 37.47559 | -86.85000 | 27540 ft | 411 kts | 338° |
| 2026-04-22 21:02 | 37.50276 | -86.86303 | 27823 ft | 414 kts | 338° |
| 2026-04-22 21:02 | 37.52982 | -86.87580 | 28127 ft | 416 kts | 339° |
| 2026-04-22 21:03 | 37.55690 | -86.88865 | 28467 ft | 416 kts | 339° |
| 2026-04-22 21:03 | 37.58281 | -86.90092 | 29516 ft | 396 kts | 338° |
| 2026-04-22 21:03 | 37.60852 | -86.91325 | 30763 ft | 379 kts | 339° |
| 2026-04-22 21:03 | 37.63325 | -86.92497 | 30743 ft | 392 kts | 339° |
| 2026-04-22 21:04 | 37.68563 | -86.94990 | 31105 ft | 401 kts | 339° |
| 2026-04-22 21:04 | 37.71167 | -86.96234 | 31657 ft | 398 kts | 339° |
| 2026-04-22 21:04 | 37.73747 | -86.97465 | 32307 ft | 395 kts | 339° |
| 2026-04-22 21:05 | 37.76309 | -86.98694 | 32910 ft | 392 kts | 339° |
| 2026-04-22 21:05 | 37.78858 | -86.99907 | 33507 ft | 389 kts | 339° |
| 2026-04-22 21:05 | 37.81415 | -87.01134 | 34104 ft | 387 kts | 339° |
| 2026-04-22 21:05 | 37.83927 | -87.02331 | 34587 ft | 385 kts | 339° |
| 2026-04-22 21:06 | 37.86423 | -87.03534 | 35034 ft | 383 kts | 339° |
| 2026-04-22 21:06 | 37.88909 | -87.04723 | 35464 ft | 381 kts | 339° |
| 2026-04-22 21:06 | 37.91389 | -87.05915 | 35881 ft | 380 kts | 339° |
| 2026-04-22 21:06 | 37.93856 | -87.07098 | 36290 ft | 378 kts | 339° |
| 2026-04-22 21:07 | 37.96317 | -87.08281 | 36548 ft | 381 kts | 339° |
| 2026-04-22 21:07 | 37.98802 | -87.09476 | 36811 ft | 382 kts | 339° |
| 2026-04-22 21:07 | 38.01285 | -87.10671 | 37166 ft | 380 kts | 339° |
| 2026-04-22 21:07 | 38.03756 | -87.11862 | 37401 ft | 379 kts | 339° |
| 2026-04-22 21:08 | 38.06222 | -87.13047 | 37624 ft | 379 kts | 339° |
| 2026-04-22 21:08 | 38.08685 | -87.14238 | 37911 ft | 378 kts | 339° |
| 2026-04-22 21:08 | 38.11149 | -87.15426 | 38287 ft | 377 kts | 338° |
| 2026-04-22 21:08 | 38.13596 | -87.16608 | 38657 ft | 375 kts | 339° |
| 2026-04-22 21:09 | 38.16005 | -87.17773 | 38967 ft | 374 kts | 338° |
| 2026-04-22 21:09 | 38.18442 | -87.18949 | 39217 ft | 374 kts | 338° |
| 2026-04-22 21:09 | 38.20876 | -87.20130 | 39471 ft | 375 kts | 338° |
| 2026-04-22 21:09 | 38.23312 | -87.21308 | 39727 ft | 375 kts | 338° |
| 2026-04-22 21:10 | 38.25751 | -87.22491 | 39973 ft | 375 kts | 338° |
| 2026-04-22 21:10 | 38.28189 | -87.23674 | 40235 ft | 375 kts | 338° |
| 2026-04-22 21:10 | 38.30625 | -87.24845 | 40523 ft | 374 kts | 338° |
| 2026-04-22 21:10 | 38.33053 | -87.26024 | 40766 ft | 374 kts | 338° |
| 2026-04-22 21:11 | 38.33962 | -87.26448 | 40855 ft | 374 kts | 338° |
| 2026-04-22 21:11 | 38.35885 | -87.27341 | 40990 ft | 376 kts | 338° |
| 2026-04-22 21:11 | 38.38210 | -87.28509 | 41046 ft | 380 kts | 336° |
| 2026-04-22 21:12 | 38.43215 | -87.31001 | 41083 ft | 391 kts | 338° |
| 2026-04-22 21:12 | 38.48355 | -87.33479 | 41073 ft | 393 kts | 338° |
| 2026-04-22 21:13 | 38.53388 | -87.35949 | 41066 ft | 382 kts | 338° |
| 2026-04-22 21:13 | 38.58290 | -87.38341 | 41063 ft | 375 kts | 338° |
| 2026-04-22 21:14 | 38.62318 | -87.40317 | 41065 ft | 370 kts | 337° |
| 2026-04-22 21:14 | 38.67880 | -87.43047 | 41048 ft | 365 kts | 337° |
| 2026-04-22 21:15 | 38.71831 | -87.44988 | 41048 ft | 362 kts | 337° |
| 2026-04-22 21:15 | 38.76494 | -87.47281 | 41047 ft | 359 kts | 337° |
| 2026-04-22 21:16 | 38.81166 | -87.49581 | 41045 ft | 357 kts | 337° |
| 2026-04-22 21:16 | 38.85758 | -87.51848 | 41046 ft | 355 kts | 337° |
| 2026-04-22 21:17 | 38.90366 | -87.54125 | 41047 ft | 353 kts | 337° |
| 2026-04-22 21:17 | 38.94983 | -87.56409 | 41047 ft | 360 kts | 337° |
| 2026-04-22 21:18 | 38.99708 | -87.58748 | 41058 ft | 368 kts | 337° |
| 2026-04-22 21:18 | 39.04535 | -87.61143 | 41062 ft | 375 kts | 337° |
| 2026-04-22 21:19 | 39.09435 | -87.63579 | 41062 ft | 380 kts | 337° |
| 2026-04-22 21:19 | 39.14404 | -87.66052 | 41061 ft | 385 kts | 337° |
| 2026-04-22 21:20 | 39.19420 | -87.68551 | 41062 ft | 388 kts | 337° |
| 2026-04-22 21:20 | 39.24471 | -87.71070 | 41045 ft | 390 kts | 337° |
| 2026-04-22 21:21 | 39.29552 | -87.73610 | 40864 ft | 395 kts | 337° |
| 2026-04-22 21:21 | 39.32087 | -87.74877 | 40360 ft | 386 kts | 337° |
| 2026-04-22 21:21 | 39.34558 | -87.76118 | 39962 ft | 375 kts | 337° |
| 2026-04-22 21:22 | 39.36964 | -87.77321 | 39609 ft | 366 kts | 337° |
| 2026-04-22 21:22 | 39.39313 | -87.78500 | 39262 ft | 358 kts | 337° |
| 2026-04-22 21:22 | 39.41603 | -87.79650 | 39017 ft | 349 kts | 337° |
| 2026-04-22 21:22 | 39.43841 | -87.80773 | 38773 ft | 341 kts | 337° |
| 2026-04-22 21:23 | 39.46023 | -87.81876 | 38494 ft | 334 kts | 337° |
| 2026-04-22 21:23 | 39.48180 | -87.82956 | 38203 ft | 333 kts | 337° |
| 2026-04-22 21:23 | 39.50341 | -87.84044 | 37924 ft | 334 kts | 337° |
| 2026-04-22 21:23 | 39.52518 | -87.85141 | 37647 ft | 336 kts | 337° |
| 2026-04-22 21:24 | 39.54702 | -87.86241 | 37377 ft | 337 kts | 337° |
| 2026-04-22 21:24 | 39.56896 | -87.87349 | 37126 ft | 338 kts | 337° |
| 2026-04-22 21:24 | 39.59121 | -87.88470 | 36864 ft | 339 kts | 337° |
| 2026-04-22 21:24 | 39.61340 | -87.89592 | 36477 ft | 338 kts | 337° |
| 2026-04-22 21:25 | 39.63473 | -87.90669 | 36078 ft | 335 kts | 337° |
| 2026-04-22 21:25 | 39.65667 | -87.91777 | 35674 ft | 332 kts | 337° |
| 2026-04-22 21:25 | 39.67810 | -87.92865 | 35280 ft | 330 kts | 337° |
| 2026-04-22 21:25 | 39.69939 | -87.93940 | 34892 ft | 328 kts | 337° |
| 2026-04-22 21:26 | 39.72060 | -87.95017 | 34512 ft | 326 kts | 337° |
| 2026-04-22 21:26 | 39.74169 | -87.96086 | 34135 ft | 325 kts | 337° |
| 2026-04-22 21:26 | 39.76270 | -87.97151 | 33722 ft | 324 kts | 337° |
| 2026-04-22 21:26 | 39.78366 | -87.98218 | 33295 ft | 322 kts | 337° |
| 2026-04-22 21:27 | 39.80454 | -87.99275 | 32889 ft | 321 kts | 337° |
| 2026-04-22 21:27 | 39.82562 | -88.00350 | 32473 ft | 321 kts | 338° |
| 2026-04-22 21:27 | 39.84613 | -88.01392 | 32068 ft | 320 kts | 337° |
| 2026-04-22 21:27 | 39.86712 | -88.02460 | 31665 ft | 319 kts | 338° |
| 2026-04-22 21:28 | 39.88822 | -88.03537 | 31170 ft | 324 kts | 338° |
| 2026-04-22 21:28 | 39.90941 | -88.04614 | 30646 ft | 330 kts | 338° |
| 2026-04-22 21:28 | 39.93095 | -88.05716 | 30129 ft | 335 kts | 338° |
| 2026-04-22 21:28 | 39.95278 | -88.06827 | 29542 ft | 338 kts | 338° |
| 2026-04-22 21:29 | 39.97477 | -88.07952 | 28950 ft | 341 kts | 338° |
| 2026-04-22 21:29 | 39.99698 | -88.09087 | 28369 ft | 344 kts | 338° |
| 2026-04-22 21:29 | 40.01929 | -88.10227 | 27799 ft | 344 kts | 338° |
| 2026-04-22 21:29 | 40.04151 | -88.11367 | 27246 ft | 343 kts | 338° |
| 2026-04-22 21:30 | 40.06363 | -88.12497 | 26707 ft | 341 kts | 339° |
| 2026-04-22 21:30 | 40.08603 | -88.13649 | 26155 ft | 340 kts | 338° |
| 2026-04-22 21:30 | 40.10812 | -88.14777 | 25623 ft | 340 kts | 339° |
| 2026-04-22 21:30 | 40.13007 | -88.15909 | 25105 ft | 339 kts | 339° |
| 2026-04-22 21:31 | 40.15227 | -88.17043 | 24591 ft | 338 kts | 339° |
| 2026-04-22 21:31 | 40.17420 | -88.18177 | 24086 ft | 338 kts | 339° |
| 2026-04-22 21:31 | 40.19601 | -88.19292 | 23631 ft | 336 kts | 339° |
| 2026-04-22 21:31 | 40.21784 | -88.20423 | 23096 ft | 335 kts | 339° |
| 2026-04-22 21:32 | 40.23947 | -88.21529 | 22568 ft | 333 kts | 339° |
| 2026-04-22 21:32 | 40.26093 | -88.22643 | 22055 ft | 331 kts | 339° |
| 2026-04-22 21:32 | 40.28233 | -88.23739 | 21547 ft | 329 kts | 339° |
| 2026-04-22 21:32 | 40.30356 | -88.24843 | 21045 ft | 328 kts | 339° |
| 2026-04-22 21:33 | 40.32473 | -88.25928 | 20554 ft | 326 kts | 339° |
| 2026-04-22 21:33 | 40.34586 | -88.27029 | 20068 ft | 325 kts | 339° |
| 2026-04-22 21:33 | 40.36692 | -88.28109 | 19590 ft | 324 kts | 339° |
| 2026-04-22 21:33 | 40.38778 | -88.29197 | 19116 ft | 322 kts | 339° |
| 2026-04-22 21:34 | 40.40863 | -88.30268 | 18659 ft | 322 kts | 339° |
| 2026-04-22 21:34 | 40.42943 | -88.31355 | 18177 ft | 320 kts | 339° |
| 2026-04-22 21:34 | 40.45017 | -88.32422 | 17651 ft | 319 kts | 339° |
| 2026-04-22 21:34 | 40.47057 | -88.33490 | 17137 ft | 319 kts | 338° |
| 2026-04-22 21:35 | 40.49148 | -88.34565 | 16618 ft | 318 kts | 339° |
| 2026-04-22 21:35 | 40.51207 | -88.35645 | 16112 ft | 317 kts | 338° |
| 2026-04-22 21:35 | 40.53281 | -88.36714 | 15614 ft | 316 kts | 339° |
| 2026-04-22 21:35 | 40.55319 | -88.37784 | 15124 ft | 315 kts | 338° |
| 2026-04-22 21:36 | 40.57354 | -88.38833 | 14645 ft | 314 kts | 338° |
| 2026-04-22 21:36 | 40.59382 | -88.39900 | 14171 ft | 313 kts | 338° |
| 2026-04-22 21:36 | 40.61411 | -88.40948 | 13695 ft | 312 kts | 338° |
| 2026-04-22 21:36 | 40.63423 | -88.42006 | 13191 ft | 309 kts | 338° |
| 2026-04-22 21:37 | 40.65411 | -88.43035 | 12752 ft | 304 kts | 338° |
| 2026-04-22 21:37 | 40.67363 | -88.44064 | 12320 ft | 301 kts | 338° |
| 2026-04-22 21:37 | 40.68673 | -88.44742 | 12079 ft | 298 kts | 338° |
| 2026-04-22 21:37 | 40.71165 | -88.46052 | 11960 ft | 284 kts | 338° |
| 2026-04-22 21:38 | 40.72394 | -88.46686 | 11953 ft | 278 kts | 338° |
| 2026-04-22 21:38 | 40.74165 | -88.47620 | 11945 ft | 270 kts | 338° |
| 2026-04-22 21:38 | 40.75904 | -88.48525 | 11946 ft | 268 kts | 338° |
| 2026-04-22 21:38 | 40.77637 | -88.49439 | 11944 ft | 268 kts | 338° |
| 2026-04-22 21:39 | 40.79368 | -88.50340 | 11947 ft | 267 kts | 338° |
| 2026-04-22 21:39 | 40.81094 | -88.51253 | 11945 ft | 267 kts | 338° |
| 2026-04-22 21:39 | 40.82825 | -88.52154 | 11944 ft | 267 kts | 338° |
| 2026-04-22 21:39 | 40.84546 | -88.53065 | 11945 ft | 267 kts | 338° |
| 2026-04-22 21:40 | 40.86282 | -88.53971 | 11946 ft | 272 kts | 338° |
| 2026-04-22 21:40 | 40.88080 | -88.54922 | 11951 ft | 284 kts | 338° |
| 2026-04-22 21:40 | 40.90009 | -88.55930 | 11970 ft | 316 kts | 338° |
| 2026-04-22 21:40 | 40.92131 | -88.57056 | 11962 ft | 347 kts | 338° |
| 2026-04-22 21:41 | 40.94339 | -88.58214 | 11960 ft | 325 kts | 338° |
| 2026-04-22 21:41 | 40.96425 | -88.59318 | 11952 ft | 323 kts | 338° |
| 2026-04-22 21:41 | 40.98401 | -88.60355 | 11950 ft | 320 kts | 338° |
| 2026-04-22 21:41 | 41.00568 | -88.61491 | 11952 ft | 315 kts | 340° |
| 2026-04-22 21:42 | 41.02709 | -88.61825 | 11933 ft | 314 kts | 8° |
| 2026-04-22 21:42 | 41.04795 | -88.60943 | 11939 ft | 319 kts | 17° |
| 2026-04-22 21:42 | 41.06977 | -88.59977 | 11948 ft | 341 kts | 17° |
| 2026-04-22 21:42 | 41.09280 | -88.58916 | 11954 ft | 359 kts | 17° |
| 2026-04-22 21:43 | 41.11642 | -88.57899 | 11951 ft | 339 kts | 16° |
| 2026-04-22 21:43 | 41.13812 | -88.56957 | 11953 ft | 319 kts | 16° |
| 2026-04-22 21:43 | 41.15841 | -88.56081 | 11943 ft | 303 kts | 16° |
| 2026-04-22 21:43 | 41.17832 | -88.55201 | 11932 ft | 293 kts | 17° |
| 2026-04-22 21:44 | 41.19771 | -88.54362 | 11932 ft | 294 kts | 16° |
| 2026-04-22 21:44 | 41.21695 | -88.53516 | 11932 ft | 295 kts | 17° |
| 2026-04-22 21:44 | 41.23659 | -88.52662 | 11933 ft | 296 kts | 16° |
| 2026-04-22 21:44 | 41.25634 | -88.51791 | 11929 ft | 297 kts | 17° |
| 2026-04-22 21:45 | 41.27603 | -88.50933 | 11930 ft | 298 kts | 16° |
| 2026-04-22 21:45 | 41.29570 | -88.50067 | 11930 ft | 298 kts | 17° |
| 2026-04-22 21:45 | 41.31541 | -88.49205 | 11930 ft | 298 kts | 16° |
| 2026-04-22 21:45 | 41.33512 | -88.48338 | 11930 ft | 298 kts | 17° |
| 2026-04-22 21:46 | 41.35485 | -88.47472 | 11931 ft | 299 kts | 16° |
| 2026-04-22 21:46 | 41.37458 | -88.46608 | 11935 ft | 299 kts | 17° |
| 2026-04-22 21:46 | 41.39437 | -88.45731 | 11935 ft | 299 kts | 16° |
| 2026-04-22 21:46 | 41.41414 | -88.44866 | 11935 ft | 299 kts | 17° |
| 2026-04-22 21:47 | 41.43370 | -88.44000 | 11938 ft | 299 kts | 16° |
| 2026-04-22 21:47 | 41.45354 | -88.43133 | 11937 ft | 300 kts | 17° |
| 2026-04-22 21:47 | 41.47334 | -88.42252 | 11938 ft | 300 kts | 16° |
| 2026-04-22 21:47 | 41.49341 | -88.41371 | 11943 ft | 300 kts | 17° |
| 2026-04-22 21:48 | 41.51299 | -88.40506 | 11942 ft | 300 kts | 16° |
| 2026-04-22 21:48 | 41.53308 | -88.39620 | 11943 ft | 300 kts | 17° |
| 2026-04-22 21:48 | 41.55264 | -88.38752 | 11946 ft | 300 kts | 16° |
| 2026-04-22 21:48 | 41.57248 | -88.37877 | 11946 ft | 300 kts | 17° |
| 2026-04-22 21:49 | 41.59227 | -88.36996 | 11948 ft | 300 kts | 16° |
| 2026-04-22 21:49 | 41.61235 | -88.36116 | 11947 ft | 300 kts | 17° |
| 2026-04-22 21:49 | 41.63214 | -88.35230 | 11947 ft | 300 kts | 16° |
| 2026-04-22 21:49 | 41.65209 | -88.34352 | 11948 ft | 300 kts | 17° |
| 2026-04-22 21:50 | 41.67151 | -88.33483 | 11951 ft | 300 kts | 16° |
| 2026-04-22 21:50 | 41.69178 | -88.32591 | 11952 ft | 318 kts | 17° |
| 2026-04-22 21:50 | 41.71323 | -88.31733 | 11951 ft | 319 kts | 8° |
| 2026-04-22 21:50 | 41.73510 | -88.31801 | 11948 ft | 315 kts | 354° |
| 2026-04-22 21:51 | 41.75717 | -88.31908 | 11953 ft | 317 kts | 358° |
| 2026-04-22 21:51 | 41.77927 | -88.32030 | 11952 ft | 312 kts | 355° |
| 2026-04-22 21:51 | 41.80065 | -88.32185 | 11954 ft | 309 kts | 356° |
| 2026-04-22 21:52 | 41.84338 | -88.32451 | 11961 ft | 305 kts | 356° |
| 2026-04-22 21:52 | 41.86454 | -88.32584 | 11959 ft | 304 kts | 356° |
| 2026-04-22 21:52 | 41.88570 | -88.32717 | 11958 ft | 303 kts | 356° |
| 2026-04-22 21:52 | 41.90675 | -88.32854 | 11956 ft | 302 kts | 356° |
| 2026-04-22 21:53 | 41.92766 | -88.32979 | 11959 ft | 302 kts | 356° |
| 2026-04-22 21:53 | 41.94865 | -88.33115 | 11957 ft | 302 kts | 356° |
| 2026-04-22 21:53 | 41.96968 | -88.33243 | 11954 ft | 302 kts | 356° |
| 2026-04-22 21:53 | 41.99061 | -88.33380 | 11956 ft | 301 kts | 356° |
| 2026-04-22 21:54 | 42.01151 | -88.33508 | 11897 ft | 302 kts | 356° |
| 2026-04-22 21:54 | 42.03261 | -88.33645 | 11649 ft | 296 kts | 356° |
| 2026-04-22 21:54 | 42.05311 | -88.33769 | 11405 ft | 294 kts | 356° |
| 2026-04-22 21:54 | 42.07322 | -88.33901 | 11157 ft | 292 kts | 356° |
| 2026-04-22 21:55 | 42.09375 | -88.34031 | 10916 ft | 291 kts | 356° |
| 2026-04-22 21:55 | 42.11370 | -88.34154 | 10669 ft | 289 kts | 356° |
| 2026-04-22 21:55 | 42.13378 | -88.34287 | 10428 ft | 288 kts | 357° |
| 2026-04-22 21:55 | 42.15381 | -88.34407 | 10188 ft | 287 kts | 356° |
| 2026-04-22 21:56 | 42.17367 | -88.34539 | 9960 ft | 286 kts | 357° |
| 2026-04-22 21:56 | 42.19481 | -88.34668 | 9688 ft | 286 kts | 356° |
| 2026-04-22 21:56 | 42.21388 | -88.34793 | 9441 ft | 285 kts | 357° |
| 2026-04-22 21:56 | 42.23383 | -88.34915 | 9183 ft | 285 kts | 356° |
| 2026-04-22 21:57 | 42.25353 | -88.35129 | 8847 ft | 278 kts | 352° |
| 2026-04-22 21:57 | 42.27213 | -88.35368 | 8473 ft | 266 kts | 356° |
| 2026-04-22 21:57 | 42.29046 | -88.35520 | 8089 ft | 256 kts | 355° |
| 2026-04-22 21:57 | 42.30819 | -88.35737 | 7717 ft | 258 kts | 355° |
| 2026-04-22 21:58 | 42.32609 | -88.35626 | 7330 ft | 254 kts | 19° |
| 2026-04-22 21:58 | 42.33972 | -88.34110 | 6884 ft | 252 kts | 58° |
| 2026-04-22 21:58 | 42.34389 | -88.31975 | 6473 ft | 251 kts | 90° |
| 2026-04-22 21:58 | 42.34153 | -88.29577 | 6011 ft | 249 kts | 99° |
| 2026-04-22 21:59 | 42.33845 | -88.27284 | 5570 ft | 248 kts | 101° |
| 2026-04-22 21:59 | 42.33518 | -88.25005 | 5159 ft | 247 kts | 101° |
| 2026-04-22 21:59 | 42.33195 | -88.22696 | 4820 ft | 252 kts | 101° |
| 2026-04-22 21:59 | 42.32876 | -88.20323 | 4467 ft | 254 kts | 101° |
| 2026-04-22 22:00 | 42.32565 | -88.17955 | 4120 ft | 256 kts | 102° |
| 2026-04-22 22:00 | 42.32264 | -88.15583 | 3795 ft | 256 kts | 100° |
| 2026-04-22 22:00 | 42.31958 | -88.13195 | 3600 ft | 251 kts | 101° |
| 2026-04-22 22:00 | 42.31761 | -88.11678 | 3516 ft | 246 kts | 101° |
| 2026-04-22 22:01 | 42.31379 | -88.08707 | 3278 ft | 235 kts | 100° |
| 2026-04-22 22:01 | 42.31090 | -88.06556 | 3102 ft | 231 kts | 101° |
| 2026-04-22 22:01 | 42.30794 | -88.04441 | 3040 ft | 225 kts | 101° |
| 2026-04-22 22:01 | 42.30497 | -88.02388 | 3009 ft | 219 kts | 101° |
| 2026-04-22 22:02 | 42.30210 | -88.00392 | 2989 ft | 214 kts | 103° |
| 2026-04-22 22:02 | 42.29397 | -87.98798 | 2979 ft | 210 kts | 149° |
| 2026-04-22 22:02 | 42.28458 | -87.98438 | 2980 ft | 210 kts | 175° |
| 2026-04-22 22:02 | 42.27030 | -87.98065 | 2984 ft | 211 kts | 163° |
| 2026-04-22 22:03 | 42.25501 | -87.97508 | 2986 ft | 213 kts | 161° |
| 2026-04-22 22:03 | 42.24438 | -87.96961 | 2987 ft | 214 kts | 159° |
| 2026-04-22 22:03 | 42.24031 | -87.96752 | 2989 ft | 214 kts | 159° |
| 2026-04-22 22:03 | 42.23096 | -87.96297 | 2896 ft | 220 kts | 160° |
| 2026-04-22 22:04 | 42.21410 | -87.95423 | 2572 ft | 227 kts | 156° |
| 2026-04-22 22:04 | 42.20210 | -87.94773 | 2323 ft | 224 kts | 158° |
| 2026-04-22 22:04 | 42.18730 | -87.94006 | 2041 ft | 199 kts | 157° |
| 2026-04-22 22:04 | 42.17548 | -87.93396 | 1794 ft | 170 kts | 158° |
| 2026-04-22 22:05 | 42.16562 | -87.92891 | 1578 ft | 140 kts | 157° |
| 2026-04-22 22:05 | 42.15695 | -87.92442 | 1381 ft | 127 kts | 151° |
| 2026-04-22 22:05 | 42.14889 | -87.91994 | 1217 ft | 124 kts | 154° |
| 2026-04-22 22:05 | 42.14066 | -87.91612 | 1049 ft | 122 kts | 158° |
| 2026-04-22 22:06 | 42.13280 | -87.91234 | 954 ft | 120 kts | 153° |
| 2026-04-22 22:06 | 42.12523 | -87.90821 | 748 ft | 114 kts | 147° |
| 2026-04-22 22:06 | 42.11842 | -87.90466 | 648 ft | 92 kts | 149° |
| 2026-04-22 22:06 | 42.11417 | -87.90227 | 644 ft | 21 kts | 154° |
| 2026-04-22 22:07 | 42.11373 | -87.90108 | 645 ft | 0 kts | 117° |
| 2026-04-22 22:07 | 42.11370 | -87.90087 | 645 ft | 7 kts | 88° |
| 2026-04-22 22:08 | 42.11420 | -87.90076 | 644 ft | 13 kts | 341° |
| 2026-04-22 22:08 | 42.11523 | -87.90128 | 643 ft | 15 kts | 346° |
| 2026-04-22 22:08 | 42.11601 | -87.90011 | 642 ft | 18 kts | 32° |
| 2026-04-22 22:08 | 42.11667 | -87.90031 | 642 ft | 5 kts | 31° |
| 2026-04-22 22:09 | 42.11678 | -87.90020 | 642 ft | 0 kts | 41° |